sensor_id;sensor_type;location;lat;lon;timestamp;temperature;humidity
22674;DHT22;11504;43.334;21.918;2022-10-16T00:03:34;12.6;100.0
22674;DHT22;11504;43.334;21.918;2022-10-16T00:08:12;12.6;100.0
22674;DHT22;11504;43.334;21.918;2022-10-16T00:12:49;12.5;100.0
22674;DHT22;11504;43.334;21.918;2022-10-16T00:17:26;12.5;100.0
22674;DHT22;11504;43.334;21.918;2022-10-16T00:22:02;12.5;100.0
22674;DHT22;11504;43.334;21.918;2022-10-16T00:26:40;12.4;100.0
22674;DHT22;11504;43.334;21.918;2022-10-16T00:31:18;12.4;100.0
22674;DHT22;11504;43.334;21.918;2022-10-16T00:36:00;12.3;100.0
22674;DHT22;11504;43.334;21.918;2022-10-16T00:40:43;12.3;100.0
22674;DHT22;11504;43.334;21.918;2022-10-16T00:45:19;12.2;100.0
22674;DHT22;11504;43.334;21.918;2022-10-16T00:50:00;12.2;100.0
22674;DHT22;11504;43.334;21.918;2022-10-16T00:54:54;12.0;100.0
22674;DHT22;11504;43.334;21.918;2022-10-16T00:59:38;12.0;100.0
22674;DHT22;11504;43.334;21.918;2022-10-16T01:04:18;12.0;100.0
22674;DHT22;11504;43.334;21.918;2022-10-16T01:09:11;12.0;100.0
22674;DHT22;11504;43.334;21.918;2022-10-16T01:14:26;12.0;100.0
22674;DHT22;11504;43.334;21.918;2022-10-16T01:19:43;12.0;100.0
22674;DHT22;11504;43.334;21.918;2022-10-16T01:24:58;12.0;100.0
22674;DHT22;11504;43.334;21.918;2022-10-16T01:30:10;12.0;100.0
22674;DHT22;11504;43.334;21.918;2022-10-16T01:35:03;11.9;100.0
22674;DHT22;11504;43.334;21.918;2022-10-16T01:40:06;11.9;100.0
22674;DHT22;11504;43.334;21.918;2022-10-16T01:44:56;11.8;100.0
22674;DHT22;11504;43.334;21.918;2022-10-16T01:49:42;11.8;100.0
22674;DHT22;11504;43.334;21.918;2022-10-16T01:54:23;11.7;100.0
22674;DHT22;11504;43.334;21.918;2022-10-16T01:59:14;11.7;100.0
22674;DHT22;11504;43.334;21.918;2022-10-16T02:04:11;11.6;100.0
22674;DHT22;11504;43.334;21.918;2022-10-16T02:09:04;11.6;100.0
22674;DHT22;11504;43.334;21.918;2022-10-16T02:13:44;11.6;100.0
22674;DHT22;11504;43.334;21.918;2022-10-16T02:18:31;11.6;100.0
22674;DHT22;11504;43.334;21.918;2022-10-16T02:23:12;11.6;100.0
22674;DHT22;11504;43.334;21.918;2022-10-16T02:28:15;11.6;100.0
22674;DHT22;11504;43.334;21.918;2022-10-16T02:33:07;11.6;100.0
22674;DHT22;11504;43.334;21.918;2022-10-16T02:37:51;11.6;100.0
22674;DHT22;11504;43.334;21.918;2022-10-16T02:42:33;11.6;100.0
22674;DHT22;11504;43.334;21.918;2022-10-16T02:47:15;11.6;100.0
22674;DHT22;11504;43.334;21.918;2022-10-16T02:51:52;11.6;100.0
22674;DHT22;11504;43.334;21.918;2022-10-16T02:56:29;11.6;100.0
22674;DHT22;11504;43.334;21.918;2022-10-16T03:01:06;11.6;100.0
22674;DHT22;11504;43.334;21.918;2022-10-16T03:05:43;11.5;100.0
22674;DHT22;11504;43.334;21.918;2022-10-16T03:10:21;11.5;100.0
22674;DHT22;11504;43.334;21.918;2022-10-16T03:14:57;11.4;100.0
22674;DHT22;11504;43.334;21.918;2022-10-16T03:19:34;11.4;100.0
22674;DHT22;11504;43.334;21.918;2022-10-16T03:24:11;11.4;100.0
22674;DHT22;11504;43.334;21.918;2022-10-16T03:28:48;11.4;100.0
22674;DHT22;11504;43.334;21.918;2022-10-16T03:33:24;11.3;100.0
22674;DHT22;11504;43.334;21.918;2022-10-16T03:38:01;11.3;100.0
22674;DHT22;11504;43.334;21.918;2022-10-16T03:42:38;11.3;100.0
22674;DHT22;11504;43.334;21.918;2022-10-16T03:47:15;11.2;100.0
22674;DHT22;11504;43.334;21.918;2022-10-16T03:51:52;11.2;100.0
22674;DHT22;11504;43.334;21.918;2022-10-16T03:56:28;11.2;100.0
22674;DHT22;11504;43.334;21.918;2022-10-16T04:01:05;11.2;100.0
22674;DHT22;11504;43.334;21.918;2022-10-16T04:05:43;11.1;100.0
22674;DHT22;11504;43.334;21.918;2022-10-16T04:10:19;11.1;100.0
22674;DHT22;11504;43.334;21.918;2022-10-16T04:14:56;11.1;100.0
22674;DHT22;11504;43.334;21.918;2022-10-16T04:19:32;11.1;100.0
22674;DHT22;11504;43.334;21.918;2022-10-16T04:24:09;11.0;100.0
22674;DHT22;11504;43.334;21.918;2022-10-16T04:28:45;11.0;100.0
22674;DHT22;11504;43.334;21.918;2022-10-16T04:33:22;10.8;100.0
22674;DHT22;11504;43.334;21.918;2022-10-16T04:37:59;10.8;100.0
22674;DHT22;11504;43.334;21.918;2022-10-16T04:42:35;10.8;100.0
22674;DHT22;11504;43.334;21.918;2022-10-16T04:47:13;10.8;100.0
22674;DHT22;11504;43.334;21.918;2022-10-16T04:57:05;10.7;100.0
22674;DHT22;11504;43.334;21.918;2022-10-16T05:01:45;10.7;100.0
22674;DHT22;11504;43.334;21.918;2022-10-16T05:06:22;10.7;100.0
22674;DHT22;11504;43.334;21.918;2022-10-16T05:10:58;10.7;100.0
22674;DHT22;11504;43.334;21.918;2022-10-16T05:15:35;10.7;100.0
22674;DHT22;11504;43.334;21.918;2022-10-16T05:20:12;10.7;100.0
22674;DHT22;11504;43.334;21.918;2022-10-16T05:24:49;12.5;100.0
22674;DHT22;11504;43.334;21.918;2022-10-16T05:29:26;12.5;100.0
22674;DHT22;11504;43.334;21.918;2022-10-16T05:34:04;14.3;100.0
22674;DHT22;11504;43.334;21.918;2022-10-16T05:38:41;14.3;100.0
22674;DHT22;11504;43.334;21.918;2022-10-16T05:43:18;16.6;100.0
22674;DHT22;11504;43.334;21.918;2022-10-16T05:47:56;16.6;100.0
22674;DHT22;11504;43.334;21.918;2022-10-16T05:52:33;16.6;100.0
22674;DHT22;11504;43.334;21.918;2022-10-16T05:57:11;19.0;100.0
22674;DHT22;11504;43.334;21.918;2022-10-16T06:01:48;19.0;100.0
22674;DHT22;11504;43.334;21.918;2022-10-16T06:06:26;20.2;100.0
22674;DHT22;11504;43.334;21.918;2022-10-16T06:11:06;20.2;100.0
22674;DHT22;11504;43.334;21.918;2022-10-16T06:15:51;21.3;100.0
22674;DHT22;11504;43.334;21.918;2022-10-16T06:20:28;21.3;100.0
22674;DHT22;11504;43.334;21.918;2022-10-16T06:25:05;21.4;100.0
22674;DHT22;11504;43.334;21.918;2022-10-16T06:29:43;21.4;100.0
22674;DHT22;11504;43.334;21.918;2022-10-16T06:34:21;21.5;100.0
22674;DHT22;11504;43.334;21.918;2022-10-16T06:38:58;21.5;100.0
22674;DHT22;11504;43.334;21.918;2022-10-16T06:43:35;21.4;100.0
22674;DHT22;11504;43.334;21.918;2022-10-16T06:48:11;21.4;100.0
22674;DHT22;11504;43.334;21.918;2022-10-16T06:52:48;21.4;100.0
22674;DHT22;11504;43.334;21.918;2022-10-16T06:57:25;21.3;100.0
22674;DHT22;11504;43.334;21.918;2022-10-16T07:02:02;21.3;100.0
22674;DHT22;11504;43.334;21.918;2022-10-16T07:06:39;21.8;100.0
22674;DHT22;11504;43.334;21.918;2022-10-16T07:11:18;21.8;100.0
22674;DHT22;11504;43.334;21.918;2022-10-16T07:16:04;22.4;100.0
22674;DHT22;11504;43.334;21.918;2022-10-16T07:20:47;22.4;100.0
22674;DHT22;11504;43.334;21.918;2022-10-16T07:25:23;22.9;100.0
22674;DHT22;11504;43.334;21.918;2022-10-16T07:30:00;22.9;100.0
22674;DHT22;11504;43.334;21.918;2022-10-16T07:34:37;23.4;100.0
22674;DHT22;11504;43.334;21.918;2022-10-16T07:39:13;23.4;100.0
22674;DHT22;11504;43.334;21.918;2022-10-16T07:43:50;23.8;100.0
22674;DHT22;11504;43.334;21.918;2022-10-16T07:48:31;23.8;100.0
22674;DHT22;11504;43.334;21.918;2022-10-16T07:53:11;24.3;100.0
22674;DHT22;11504;43.334;21.918;2022-10-16T07:57:49;24.3;100.0
22674;DHT22;11504;43.334;21.918;2022-10-16T08:02:25;24.3;100.0
22674;DHT22;11504;43.334;21.918;2022-10-16T08:07:02;24.8;100.0
22674;DHT22;11504;43.334;21.918;2022-10-16T08:11:38;24.8;100.0
22674;DHT22;11504;43.334;21.918;2022-10-16T08:16:15;25.2;100.0
22674;DHT22;11504;43.334;21.918;2022-10-16T08:20:55;25.2;100.0
22674;DHT22;11504;43.334;21.918;2022-10-16T08:25:35;25.8;100.0
22674;DHT22;11504;43.334;21.918;2022-10-16T08:30:16;25.8;100.0
22674;DHT22;11504;43.334;21.918;2022-10-16T08:35:00;26.3;100.0
22674;DHT22;11504;43.334;21.918;2022-10-16T08:39:37;26.3;100.0
22674;DHT22;11504;43.334;21.918;2022-10-16T08:44:31;26.4;100.0
22674;DHT22;11504;43.334;21.918;2022-10-16T08:50:14;26.4;100.0
22674;DHT22;11504;43.334;21.918;2022-10-16T08:55:17;26.4;100.0
22674;DHT22;11504;43.334;21.918;2022-10-16T09:00:18;26.4;100.0
22674;DHT22;11504;43.334;21.918;2022-10-16T09:05:18;26.4;100.0
22674;DHT22;11504;43.334;21.918;2022-10-16T09:10:56;26.4;100.0
22674;DHT22;11504;43.334;21.918;2022-10-16T09:16:17;26.4;100.0
22674;DHT22;11504;43.334;21.918;2022-10-16T09:21:18;26.4;100.0
22674;DHT22;11504;43.334;21.918;2022-10-16T09:26:12;26.4;100.0
22674;DHT22;11504;43.334;21.918;2022-10-16T09:30:54;26.4;100.0
22674;DHT22;11504;43.334;21.918;2022-10-16T09:35:36;26.4;100.0
22674;DHT22;11504;43.334;21.918;2022-10-16T09:40:29;26.4;100.0
22674;DHT22;11504;43.334;21.918;2022-10-16T09:45:23;26.2;100.0
22674;DHT22;11504;43.334;21.918;2022-10-16T09:50:03;26.2;100.0
22674;DHT22;11504;43.334;21.918;2022-10-16T09:55:13;26.0;100.0
22674;DHT22;11504;43.334;21.918;2022-10-16T09:59:55;26.0;100.0
22674;DHT22;11504;43.334;21.918;2022-10-16T10:04:49;25.4;100.0
22674;DHT22;11504;43.334;21.918;2022-10-16T10:09:33;25.4;100.0
22674;DHT22;11504;43.334;21.918;2022-10-16T10:14:22;24.9;100.0
22674;DHT22;11504;43.334;21.918;2022-10-16T10:19:13;24.9;100.0
22674;DHT22;11504;43.334;21.918;2022-10-16T10:23:55;24.8;100.0
22674;DHT22;11504;43.334;21.918;2022-10-16T10:28:43;24.8;100.0
22674;DHT22;11504;43.334;21.918;2022-10-16T10:33:49;24.6;100.0
22674;DHT22;11504;43.334;21.918;2022-10-16T10:38:58;24.6;100.0
22674;DHT22;11504;43.334;21.918;2022-10-16T10:44:01;24.2;100.0
22674;DHT22;11504;43.334;21.918;2022-10-16T10:49:45;24.2;100.0
22674;DHT22;11504;43.334;21.918;2022-10-16T10:55:12;23.9;100.0
22674;DHT22;11504;43.334;21.918;2022-10-16T11:00:24;23.9;100.0
22674;DHT22;11504;43.334;21.918;2022-10-16T11:05:43;23.7;100.0
22674;DHT22;11504;43.334;21.918;2022-10-16T11:10:50;23.7;100.0
22674;DHT22;11504;43.334;21.918;2022-10-16T11:15:51;23.5;100.0
22674;DHT22;11504;43.334;21.918;2022-10-16T11:21:02;23.5;100.0
22674;DHT22;11504;43.334;21.918;2022-10-16T11:26:00;23.2;100.0
22674;DHT22;11504;43.334;21.918;2022-10-16T11:31:05;23.2;100.0
22674;DHT22;11504;43.334;21.918;2022-10-16T11:36:11;22.8;100.0
22674;DHT22;11504;43.334;21.918;2022-10-16T11:41:15;22.8;100.0
22674;DHT22;11504;43.334;21.918;2022-10-16T11:46:24;22.7;100.0
22674;DHT22;11504;43.334;21.918;2022-10-16T11:51:22;22.7;100.0
22674;DHT22;11504;43.334;21.918;2022-10-16T11:56:29;22.6;100.0
22674;DHT22;11504;43.334;21.918;2022-10-16T12:01:27;22.6;100.0
22674;DHT22;11504;43.334;21.918;2022-10-16T12:06:35;22.6;100.0
22674;DHT22;11504;43.334;21.918;2022-10-16T12:11:38;22.6;100.0
22674;DHT22;11504;43.334;21.918;2022-10-16T12:16:22;22.7;100.0
22674;DHT22;11504;43.334;21.918;2022-10-16T12:21:00;22.7;100.0
22674;DHT22;11504;43.334;21.918;2022-10-16T12:25:40;22.7;100.0
22674;DHT22;11504;43.334;21.918;2022-10-16T12:30:22;22.7;100.0
22674;DHT22;11504;43.334;21.918;2022-10-16T12:35:18;22.7;100.0
22674;DHT22;11504;43.334;21.918;2022-10-16T12:40:12;22.7;100.0
22674;DHT22;11504;43.334;21.918;2022-10-16T12:45:29;22.7;100.0
22674;DHT22;11504;43.334;21.918;2022-10-16T12:50:25;22.7;100.0
22674;DHT22;11504;43.334;21.918;2022-10-16T12:55:16;22.7;100.0
22674;DHT22;11504;43.334;21.918;2022-10-16T13:00:03;22.7;100.0
22674;DHT22;11504;43.334;21.918;2022-10-16T13:05:21;22.8;100.0
22674;DHT22;11504;43.334;21.918;2022-10-16T13:10:37;22.8;100.0
22674;DHT22;11504;43.334;21.918;2022-10-16T13:15:52;22.9;100.0
22674;DHT22;11504;43.334;21.918;2022-10-16T13:21:36;22.9;100.0
22674;DHT22;11504;43.334;21.918;2022-10-16T13:26:44;22.7;100.0
22674;DHT22;11504;43.334;21.918;2022-10-16T13:32:01;22.7;100.0
22674;DHT22;11504;43.334;21.918;2022-10-16T13:36:52;22.5;100.0
22674;DHT22;11504;43.334;21.918;2022-10-16T13:41:30;22.5;100.0
22674;DHT22;11504;43.334;21.918;2022-10-16T13:46:13;22.2;100.0
22674;DHT22;11504;43.334;21.918;2022-10-16T13:50:59;22.2;100.0
22674;DHT22;11504;43.334;21.918;2022-10-16T13:55:50;21.9;100.0
22674;DHT22;11504;43.334;21.918;2022-10-16T14:00:28;21.9;100.0
22674;DHT22;11504;43.334;21.918;2022-10-16T14:05:08;21.8;100.0
22674;DHT22;11504;43.334;21.918;2022-10-16T14:09:51;21.8;100.0
22674;DHT22;11504;43.334;21.918;2022-10-16T14:14:35;21.7;100.0
22674;DHT22;11504;43.334;21.918;2022-10-16T14:19:25;21.7;100.0
22674;DHT22;11504;43.334;21.918;2022-10-16T14:24:11;21.6;100.0
22674;DHT22;11504;43.334;21.918;2022-10-16T14:29:12;21.6;100.0
22674;DHT22;11504;43.334;21.918;2022-10-16T14:33:56;21.5;100.0
22674;DHT22;11504;43.334;21.918;2022-10-16T14:38:36;21.5;100.0
22674;DHT22;11504;43.334;21.918;2022-10-16T14:43:41;21.4;100.0
22674;DHT22;11504;43.334;21.918;2022-10-16T14:48:20;21.4;100.0
22674;DHT22;11504;43.334;21.918;2022-10-16T14:52:59;21.4;100.0
22674;DHT22;11504;43.334;21.918;2022-10-16T14:57:37;21.2;100.0
22674;DHT22;11504;43.334;21.918;2022-10-16T15:02:25;21.2;100.0
22674;DHT22;11504;43.334;21.918;2022-10-16T15:07:11;21.0;100.0
22674;DHT22;11504;43.334;21.918;2022-10-16T15:11:48;21.0;100.0
22674;DHT22;11504;43.334;21.918;2022-10-16T15:16:25;20.9;100.0
22674;DHT22;11504;43.334;21.918;2022-10-16T15:21:01;20.9;100.0
22674;DHT22;11504;43.334;21.918;2022-10-16T15:25:43;20.7;100.0
22674;DHT22;11504;43.334;21.918;2022-10-16T15:30:28;20.7;100.0
22674;DHT22;11504;43.334;21.918;2022-10-16T15:35:08;20.5;100.0
22674;DHT22;11504;43.334;21.918;2022-10-16T15:39:45;20.5;100.0
22674;DHT22;11504;43.334;21.918;2022-10-16T15:44:21;20.2;100.0
22674;DHT22;11504;43.334;21.918;2022-10-16T15:48:58;20.2;100.0
22674;DHT22;11504;43.334;21.918;2022-10-16T15:53:36;19.9;100.0
22674;DHT22;11504;43.334;21.918;2022-10-16T15:58:12;19.9;100.0
22674;DHT22;11504;43.334;21.918;2022-10-16T16:02:51;19.9;100.0
22674;DHT22;11504;43.334;21.918;2022-10-16T16:07:32;19.5;100.0
22674;DHT22;11504;43.334;21.918;2022-10-16T16:12:10;19.5;100.0
22674;DHT22;11504;43.334;21.918;2022-10-16T16:16:47;19.2;100.0
22674;DHT22;11504;43.334;21.918;2022-10-16T16:21:24;19.2;100.0
22674;DHT22;11504;43.334;21.918;2022-10-16T16:26:05;19.0;100.0
22674;DHT22;11504;43.334;21.918;2022-10-16T16:31:01;19.0;100.0
22674;DHT22;11504;43.334;21.918;2022-10-16T16:35:39;18.7;100.0
22674;DHT22;11504;43.334;21.918;2022-10-16T16:40:15;18.7;100.0
22674;DHT22;11504;43.334;21.918;2022-10-16T16:44:53;18.4;100.0
22674;DHT22;11504;43.334;21.918;2022-10-16T16:49:31;18.4;100.0
22674;DHT22;11504;43.334;21.918;2022-10-16T16:54:09;18.2;100.0
22674;DHT22;11504;43.334;21.918;2022-10-16T16:58:49;18.2;100.0
22674;DHT22;11504;43.334;21.918;2022-10-16T17:03:34;18.2;100.0
22674;DHT22;11504;43.334;21.918;2022-10-16T17:08:12;18.0;100.0
22674;DHT22;11504;43.334;21.918;2022-10-16T17:12:49;18.0;100.0
22674;DHT22;11504;43.334;21.918;2022-10-16T17:17:25;17.9;100.0
22674;DHT22;11504;43.334;21.918;2022-10-16T17:22:02;17.9;100.0
22674;DHT22;11504;43.334;21.918;2022-10-16T17:26:39;17.8;100.0
22674;DHT22;11504;43.334;21.918;2022-10-16T17:31:18;17.8;100.0
22674;DHT22;11504;43.334;21.918;2022-10-16T17:36:05;17.7;100.0
22674;DHT22;11504;43.334;21.918;2022-10-16T17:40:45;17.7;100.0
22674;DHT22;11504;43.334;21.918;2022-10-16T17:45:22;17.6;100.0
22674;DHT22;11504;43.334;21.918;2022-10-16T17:50:00;17.6;100.0
22674;DHT22;11504;43.334;21.918;2022-10-16T17:54:37;17.5;100.0
22674;DHT22;11504;43.334;21.918;2022-10-16T17:59:14;17.5;100.0
22674;DHT22;11504;43.334;21.918;2022-10-16T18:03:53;17.4;100.0
22674;DHT22;11504;43.334;21.918;2022-10-16T18:08:40;17.4;100.0
22674;DHT22;11504;43.334;21.918;2022-10-16T18:13:16;17.4;100.0
22674;DHT22;11504;43.334;21.918;2022-10-16T18:17:52;17.4;100.0
22674;DHT22;11504;43.334;21.918;2022-10-16T18:22:29;17.4;100.0
22674;DHT22;11504;43.334;21.918;2022-10-16T18:27:07;17.4;100.0
22674;DHT22;11504;43.334;21.918;2022-10-16T18:31:43;17.4;100.0
22674;DHT22;11504;43.334;21.918;2022-10-16T18:36:22;17.3;100.0
22674;DHT22;11504;43.334;21.918;2022-10-16T18:41:04;17.3;100.0
22674;DHT22;11504;43.334;21.918;2022-10-16T18:45:40;17.2;100.0
22674;DHT22;11504;43.334;21.918;2022-10-16T18:50:17;17.2;100.0
22674;DHT22;11504;43.334;21.918;2022-10-16T18:54:55;17.0;100.0
22674;DHT22;11504;43.334;21.918;2022-10-16T18:59:32;17.0;100.0
22674;DHT22;11504;43.334;21.918;2022-10-16T19:04:11;17.0;100.0
22674;DHT22;11504;43.334;21.918;2022-10-16T19:08:53;17.0;100.0
22674;DHT22;11504;43.334;21.918;2022-10-16T19:13:33;17.0;100.0
22674;DHT22;11504;43.334;21.918;2022-10-16T19:18:12;17.0;100.0
22674;DHT22;11504;43.334;21.918;2022-10-16T19:22:49;17.0;100.0
22674;DHT22;11504;43.334;21.918;2022-10-16T19:27:25;16.9;100.0
22674;DHT22;11504;43.334;21.918;2022-10-16T19:32:03;16.9;100.0
22674;DHT22;11504;43.334;21.918;2022-10-16T19:36:41;16.8;100.0
22674;DHT22;11504;43.334;21.918;2022-10-16T19:41:18;16.8;100.0
22674;DHT22;11504;43.334;21.918;2022-10-16T19:46:03;16.5;100.0
22674;DHT22;11504;43.334;21.918;2022-10-16T19:50:49;16.5;100.0
22674;DHT22;11504;43.334;21.918;2022-10-16T19:55:29;16.1;100.0
22674;DHT22;11504;43.334;21.918;2022-10-16T20:00:08;16.1;100.0
22674;DHT22;11504;43.334;21.918;2022-10-16T20:04:48;15.9;100.0
22674;DHT22;11504;43.334;21.918;2022-10-16T20:09:25;15.9;100.0
22674;DHT22;11504;43.334;21.918;2022-10-16T20:14:03;15.7;100.0
22674;DHT22;11504;43.334;21.918;2022-10-16T20:18:41;15.7;100.0
22674;DHT22;11504;43.334;21.918;2022-10-16T20:23:21;15.7;100.0
22674;DHT22;11504;43.334;21.918;2022-10-16T20:27:59;15.6;100.0
22674;DHT22;11504;43.334;21.918;2022-10-16T20:32:36;15.6;100.0
22674;DHT22;11504;43.334;21.918;2022-10-16T20:37:12;15.4;100.0
22674;DHT22;11504;43.334;21.918;2022-10-16T20:41:50;15.4;100.0
22674;DHT22;11504;43.334;21.918;2022-10-16T20:46:27;15.2;100.0
22674;DHT22;11504;43.334;21.918;2022-10-16T20:51:11;15.2;100.0
22674;DHT22;11504;43.334;21.918;2022-10-16T20:55:53;15.0;100.0
22674;DHT22;11504;43.334;21.918;2022-10-16T21:00:29;15.0;100.0
22674;DHT22;11504;43.334;21.918;2022-10-16T21:05:07;14.8;100.0
22674;DHT22;11504;43.334;21.918;2022-10-16T21:09:44;14.8;100.0
22674;DHT22;11504;43.334;21.918;2022-10-16T21:14:20;14.6;100.0
22674;DHT22;11504;43.334;21.918;2022-10-16T21:18:57;14.6;100.0
22674;DHT22;11504;43.334;21.918;2022-10-16T21:23:33;14.6;100.0
22674;DHT22;11504;43.334;21.918;2022-10-16T21:28:09;14.4;100.0
22674;DHT22;11504;43.334;21.918;2022-10-16T21:32:46;14.4;100.0
22674;DHT22;11504;43.334;21.918;2022-10-16T21:37:23;14.3;100.0
22674;DHT22;11504;43.334;21.918;2022-10-16T21:41:59;14.3;100.0
22674;DHT22;11504;43.334;21.918;2022-10-16T21:46:38;14.2;100.0
22674;DHT22;11504;43.334;21.918;2022-10-16T21:51:24;14.2;100.0
22674;DHT22;11504;43.334;21.918;2022-10-16T21:56:12;14.2;100.0
22674;DHT22;11504;43.334;21.918;2022-10-16T22:00:53;14.2;100.0
22674;DHT22;11504;43.334;21.918;2022-10-16T22:05:29;14.1;100.0
22674;DHT22;11504;43.334;21.918;2022-10-16T22:10:10;14.1;100.0
22674;DHT22;11504;43.334;21.918;2022-10-16T22:14:46;14.0;100.0
22674;DHT22;11504;43.334;21.918;2022-10-16T22:19:23;14.0;100.0
22674;DHT22;11504;43.334;21.918;2022-10-16T22:24:00;13.8;100.0
22674;DHT22;11504;43.334;21.918;2022-10-16T22:28:39;13.8;100.0
22674;DHT22;11504;43.334;21.918;2022-10-16T22:33:18;13.8;100.0
22674;DHT22;11504;43.334;21.918;2022-10-16T22:37:54;13.7;100.0
22674;DHT22;11504;43.334;21.918;2022-10-16T22:42:32;13.7;100.0
22674;DHT22;11504;43.334;21.918;2022-10-16T22:47:08;13.6;100.0
22674;DHT22;11504;43.334;21.918;2022-10-16T22:51:45;13.6;100.0
22674;DHT22;11504;43.334;21.918;2022-10-16T22:56:23;13.4;100.0
22674;DHT22;11504;43.334;21.918;2022-10-16T23:01:02;13.4;100.0
22674;DHT22;11504;43.334;21.918;2022-10-16T23:06:02;13.4;100.0
22674;DHT22;11504;43.334;21.918;2022-10-16T23:10:42;13.4;100.0
22674;DHT22;11504;43.334;21.918;2022-10-16T23:15:23;13.4;100.0
22674;DHT22;11504;43.334;21.918;2022-10-16T23:20:01;13.4;100.0
22674;DHT22;11504;43.334;21.918;2022-10-16T23:24:40;13.3;100.0
22674;DHT22;11504;43.334;21.918;2022-10-16T23:29:17;13.3;100.0
22674;DHT22;11504;43.334;21.918;2022-10-16T23:33:54;13.3;100.0
22674;DHT22;11504;43.334;21.918;2022-10-16T23:38:33;13.2;100.0
22674;DHT22;11504;43.334;21.918;2022-10-16T23:43:10;13.2;100.0
22674;DHT22;11504;43.334;21.918;2022-10-16T23:47:46;13.0;100.0
22674;DHT22;11504;43.334;21.918;2022-10-16T23:52:23;13.0;100.0
22674;DHT22;11504;43.334;21.918;2022-10-16T23:56:59;12.9;100.0
